This demonstration page uses our WeatherBlox Daily Observations layout. Learn more.

39.29038, -76.61219

Hourly Observations for January 24, 2021

Temp ( °F °C ) Dew Point ( °F °C ) Humidity (%) Winds ( mph kmh ) Pressure ( in mb ) Visibility ( mi km ) Precip ( " mm )
12:54 am 00:54 Partly Cloudy 24 -4.4 9 -12.8 52 52 WNW 7 11 30.29 1026 10 16.0934 0 0
1:54 am 01:54 Mostly Cloudy 24 -4.4 9 -12.8 52 52 WNW 10 17 30.3 1026 10 16.0934 0 0
2:54 am 02:54 Mostly Cloudy 24 -4.4 10 -12.2 55 55 W 10 17 30.3 1026 10 16.0934 0 0
3:54 am 03:54 Mostly Cloudy 24 -4.4 11 -11.7 57 57 W 10 17 30.3 1026 10 16.0934 0 0
4:54 am 04:54 Mostly Cloudy 24 -4.4 11 -11.7 57 57 W 9 15 30.29 1026 10 16.0934 0 0
5:54 am 05:54 Mostly Clear 23 -5 11 -11.7 60 60 W 8 13 30.31 1027 10 16.0934 0 0
6:54 am 06:54 Mostly Clear 23 -5 11 -11.7 60 60 W 8 13 30.32 1027 10 16.0934 0 0
7:54 am 07:54 Partly Cloudy 24 -4.4 11 -11.7 57 57 WNW 9 15 30.33 1027 10 16.0934 0 0
8:54 am 08:54 Mostly Cloudy 28 -2.2 12 -11.1 51 51 WNW 9 15 30.32 1027 10 16.0934 0 0
9:54 am 09:54 Mostly Cloudy 32 0 13 -10.6 45 45 NW 8 13 30.31 1026 10 16.0934 0 0
10:54 am 10:54 Mostly Cloudy 32 0 13 -10.6 45 45 WNW 10 17 30.3 1026 10 16.0934 0 0
11:54 am 11:54 Mostly Cloudy 35 1.7 13 -10.6 40 40 WNW 8 13 30.28 1025 10 16.0934 0 0
12:54 pm 12:54 Mostly Cloudy 37 2.8 12 -11.1 36 36 W 8 13 30.25 1024 10 16.0934 0 0
1:54 pm 13:54 Mostly Cloudy 38 3.3 12 -11.1 34 34 VRB 5 7 30.23 1024 10 16.0934 0 0
2:54 pm 14:54 Mostly Cloudy 38 3.3 12 -11.1 34 34 WSW 7 11 30.21 1023 10 16.0934 0 0
3:54 pm 15:54 Mostly Cloudy 37 2.8 12 -11.1 36 36 WSW 7 11 30.19 1023 10 16.0934 0 0
4:54 pm 16:54 Cloudy 36 2.2 12 -11.1 37 37 NW 5 7 30.19 1022 10 16.0934 0 0
5:54 pm 17:54 Cloudy 35 1.7 14 -10 42 42 W 6 9 30.2 1023 10 16.0934 0 0
6:54 pm 18:54 Cloudy 35 1.7 13 -10.6 40 40 W 6 9 30.2 1023 10 16.0934 0 0
7:54 pm 19:54 Cloudy 35 1.7 13 -10.6 40 40 W 3 6 30.18 1022 10 16.0934 0 0
8:54 pm 20:54 Cloudy 34 1.1 15 -9.4 46 46 Calm 30.17 1022 10 16.0934 0 0
9:54 pm 21:54 Cloudy 35 1.7 14 -10 42 42 Calm 30.17 1022 10 16.0934 0 0
10:54 pm 22:54 Cloudy 35 1.7 14 -10 42 42 Calm 30.16 1021 10 16.0934 0 0
11:54 pm 23:54 Cloudy 34 1.1 17 -8.3 50 50 ESE 3 6 30.15 1021 10 16.0934 0 0

Powered by AerisWeather